Nadia Delphine — WDH3256 — position and weather

sailwx.info

Track history (hours):
 
Tides and Currents Weather Stations Pressure Air Temp Water Temp Dewpoint Dewpoint Depression Visibility Wind Speed Wind Dir Waves Ship Positions

Nadia Delphine

Owner: Wehlen, Thomas, San Francisco, CA. More information available from US FCC via Universal Licensing System.

Last reported at 2018-Jun-12 15:44 UTC. Time now 2018-Jul-19 17:24 UTC.
Position N 37°52' W 122°29'.
Warning: this ship's position is 37 days out of date.

Length 12 m.

Type: Sailing vessel. MMSI: 367605870.

Date/timePositionNaut miles runAvg speedWind from/ knotsBaromVisibWave heightAir tempDewpointWater temp
2018-Jun-12 15:44N 37°52' W 122°29'0 0.0
2018-Jun-12 15:14N 37°52' W 122°29'0 0.0
2018-Jun-12 14:56N 37°52' W 122°29'0 0.0
2018-Jun-12 08:38N 37°52' W 122°29'0 0.0
2018-Jun-12 08:20N 37°52' W 122°29'0 0.0
2018-Jun-12 07:56N 37°52' W 122°29'0 0.0
2018-Jun-12 00:38N 37°52' W 122°29'1 4.8
2018-Jun-12 00:30N 37°51' W 122°28'3 6.1
2018-Jun-12 00:00N 37°49' W 122°25'3 5.8
2018-Jun-11 23:30N 37°52' W 122°25'2 4.2
2018-Jun-11 22:58N 37°51' W 122°28'2 4.0
2018-Jun-11 22:30N 37°50' W 122°28'2 0.3
2018-Jun-11 15:20N 37°52' W 122°29'0 0.0
2018-Jun-11 14:56N 37°52' W 122°29'0 0.0
2018-Jun-11 14:08N 37°52' W 122°29'0 0.0
2018-Jun-11 09:02N 37°52' W 122°29'0 0.0
2018-Jun-11 01:20N 37°52' W 122°29'0 0.0
2018-Jun-11 00:50N 37°52' W 122°29'0 0.0
2018-Jun-10 19:54N 37°52' W 122°29'2 5.0
2018-Jun-10 19:30N 37°51' W 122°27'2 3.2
2018-Jun-10 19:00N 37°49' W 122°26'1 1.8
2018-Jun-10 18:29N 37°50' W 122°27'2 0.8
2018-Jun-10 15:41N 37°52' W 122°29'0 0.0
2018-Jun-10 15:17N 37°52' W 122°29'0 0.0
2018-Jun-10 14:53N 37°52' W 122°29'0 0.0
2018-Jun-10 14:17N 37°52' W 122°29'0 0.0
2018-Jun-10 13:29N 37°52' W 122°29'0 0.0
2018-Jun-10 12:59N 37°52' W 122°29'0 0.0
2018-Jun-10 11:47N 37°52' W 122°29'0 0.0
2018-Jun-10 11:29N 37°52' W 122°29'0 0.0
2018-Jun-10 09:53N 37°52' W 122°29'0 0.0
2018-Jun-10 08:11N 37°52' W 122°29'0 0.0
2018-Jun-10 00:47N 37°52' W 122°29'0 0.0
2018-Jun-09 23:38N 37°52' W 122°29'0 3.4
2018-Jun-09 23:30N 37°51' W 122°28'1 2.4
2018-Jun-09 23:00N 37°52' W 122°27'1 2.5
2018-Jun-09 22:30N 37°52' W 122°25'1 1.5
2018-Jun-09 22:00N 37°53' W 122°25'2 2.8
2018-Jun-09 21:24N 37°51' W 122°25'2 5.7
2018-Jun-09 21:00N 37°49' W 122°26'2 4.2
2018-Jun-09 20:30N 37°51' W 122°28'1 2.0
2018-Jun-09 19:49N 37°52' W 122°29'0 0.0
2018-Jun-09 18:01N 37°52' W 122°29'0 0.0
2018-Jun-09 17:01N 37°52' W 122°29'0 0.0
2018-Jun-09 16:49N 37°52' W 122°29'0 0.0
2018-Jun-09 16:19N 37°52' W 122°29'0 0.0
2018-Jun-09 15:55N 37°52' W 122°29'0 0.0
2018-Jun-09 15:25N 37°52' W 122°29'0 0.0
2018-Jun-09 14:19N 37°52' W 122°29'0 0.0
2018-Jun-09 13:55N 37°52' W 122°29'0 0.0
2018-Jun-09 13:28N 37°52' W 122°29'0 0.0
2018-Jun-09 12:31N 37°52' W 122°29'0 0.0
2018-Jun-09 12:07N 37°52' W 122°29'0 0.0
2018-Jun-09 11:58N 37°52' W 122°29'0 0.0
2018-Jun-09 09:31N 37°52' W 122°29'0 0.0
2018-Jun-09 09:07N 37°52' W 122°29'0 0.0
2018-Jun-09 08:55N 37°52' W 122°29'0 0.0
2018-Jun-09 08:25N 37°52' W 122°29'0 0.0
2018-Jun-08 22:48N 37°51' W 122°28'1 4.7
2018-Jun-08 22:30N 37°50' W 122°27'1 2.3
2018-Jun-08 21:57N 37°50' W 122°25'2 0.7
2018-Jun-08 18:22N 37°51' W 122°28'1 0.2
2018-Jun-08 15:44N 37°52' W 122°29'0 0.0
2018-Jun-08 15:08N 37°52' W 122°29'0 0.0
2018-Jun-08 14:56N 37°52' W 122°29'0 0.0
2018-Jun-08 14:26N 37°52' W 122°29'0 0.0
2018-Jun-08 13:56N 37°52' W 122°29'0 0.0
2018-Jun-08 12:38N 37°52' W 122°29'0 0.0
2018-Jun-08 12:26N 37°52' W 122°29'0 0.0
2018-Jun-08 11:26N 37°52' W 122°29'0 0.0
2018-Jun-08 10:38N 37°52' W 122°29'0 0.0
2018-Jun-08 10:14N 37°52' W 122°29'0 0.0
2018-Jun-08 09:44N 37°52' W 122°29'0 0.0
2018-Jun-08 09:26N 37°52' W 122°29'0 0.0
2018-Jun-08 08:50N 37°52' W 122°29'0 0.0
2018-Jun-08 06:26N 37°52' W 122°29'0 0.0
2018-Jun-08 03:08N 37°52' W 122°29'0 0.0
2018-Jun-08 02:50N 37°52' W 122°29'0 0.0
2018-Jun-08 01:14N 37°52' W 122°29'0 0.0
2018-Jun-07 15:07N 37°52' W 122°29'0 0.0
2018-Jun-07 12:52N 37°52' W 122°29'0 0.0
2018-Jun-07 12:28N 37°52' W 122°29'0 0.0
2018-Jun-07 11:40N 37°52' W 122°29'0 0.0
2018-Jun-07 10:46N 37°52' W 122°29'0 0.0
2018-Jun-07 09:16N 37°52' W 122°29'0 0.0
2018-Jun-07 08:34N 37°52' W 122°29'0 0.0
2018-Jun-06 14:41N 37°52' W 122°29'0 0.0
2018-Jun-06 13:29N 37°52' W 122°29'0 0.0
2018-Jun-06 07:41N 37°52' W 122°29'0 0.0
2018-Jun-05 23:47N 37°52' W 122°29'0 0.0
2018-Jun-05 09:11N 37°52' W 122°29'0 0.0
2018-Jun-05 08:53N 37°52' W 122°29'0 0.0
2018-Jun-05 08:05N 37°52' W 122°29'1 0.0
2018-Jun-03 20:27N 37°51' W 122°28'1 3.1
2018-Jun-03 20:00N 37°52' W 122°27'2 4.4
2018-Jun-03 19:30N 37°51' W 122°25'3 5.6
2018-Jun-03 19:00N 37°49' W 122°27'1 2.0
2018-Jun-03 18:30N 37°50' W 122°27'2 0.6
2018-Jun-03 14:38N 37°52' W 122°29'0 0.0
2018-Jun-03 14:20N 37°52' W 122°29'0 0.0
2018-Jun-03 13:32N 37°52' W 122°29'0 0.0
2018-Jun-03 13:14N 37°52' W 122°29'0 0.0
2018-Jun-02 20:17N 37°52' W 122°29'0 0.2
2018-Jun-02 19:58N 37°52' W 122°29'2 4.9
2018-Jun-02 19:30N 37°50' W 122°27'1 1.9
2018-Jun-02 19:00N 37°50' W 122°25'3 5.6
2018-Jun-02 18:30N 37°52' W 122°29'0 0.1
2018-Jun-02 16:26N 37°52' W 122°29'  
Track history (hours):
 
Tides and Currents Weather Stations Pressure Air Temp Water Temp Dewpoint Dewpoint Depression Visibility Wind Speed Wind Dir Waves Ship Positions

Nadia Delphine

Owner: Wehlen, Thomas, San Francisco, CA. More information available from US FCC via Universal Licensing System.

Last reported at 2018-Jun-12 15:44 UTC. Time now 2018-Jul-19 17:24 UTC.
Position N 37°52' W 122°29'.
Warning: this ship's position is 37 days out of date.

Length 12 m.

Type: Sailing vessel. MMSI: 367605870.

Date/timePositionNaut miles runAvg speedWind from/ knotsBaromVisibWave heightAir tempDewpointWater temp
2018-Jun-12 15:44N 37°52' W 122°29'0 0.0
2018-Jun-12 15:14N 37°52' W 122°29'0 0.0
2018-Jun-12 14:56N 37°52' W 122°29'0 0.0
2018-Jun-12 08:38N 37°52' W 122°29'0 0.0
2018-Jun-12 08:20N 37°52' W 122°29'0 0.0
2018-Jun-12 07:56N 37°52' W 122°29'0 0.0
2018-Jun-12 00:38N 37°52' W 122°29'1 4.8
2018-Jun-12 00:30N 37°51' W 122°28'3 6.1
2018-Jun-12 00:00N 37°49' W 122°25'3 5.8
2018-Jun-11 23:30N 37°52' W 122°25'2 4.2
2018-Jun-11 22:58N 37°51' W 122°28'2 4.0
2018-Jun-11 22:30N 37°50' W 122°28'2 0.3
2018-Jun-11 15:20N 37°52' W 122°29'0 0.0
2018-Jun-11 14:56N 37°52' W 122°29'0 0.0
2018-Jun-11 14:08N 37°52' W 122°29'0 0.0
2018-Jun-11 09:02N 37°52' W 122°29'0 0.0
2018-Jun-11 01:20N 37°52' W 122°29'0 0.0
2018-Jun-11 00:50N 37°52' W 122°29'0 0.0
2018-Jun-10 19:54N 37°52' W 122°29'2 5.0
2018-Jun-10 19:30N 37°51' W 122°27'2 3.2
2018-Jun-10 19:00N 37°49' W 122°26'1 1.8
2018-Jun-10 18:29N 37°50' W 122°27'2 0.8
2018-Jun-10 15:41N 37°52' W 122°29'0 0.0
2018-Jun-10 15:17N 37°52' W 122°29'0 0.0
2018-Jun-10 14:53N 37°52' W 122°29'0 0.0
2018-Jun-10 14:17N 37°52' W 122°29'0 0.0
2018-Jun-10 13:29N 37°52' W 122°29'0 0.0
2018-Jun-10 12:59N 37°52' W 122°29'0 0.0
2018-Jun-10 11:47N 37°52' W 122°29'0 0.0
2018-Jun-10 11:29N 37°52' W 122°29'0 0.0
2018-Jun-10 09:53N 37°52' W 122°29'0 0.0
2018-Jun-10 08:11N 37°52' W 122°29'0 0.0
2018-Jun-10 00:47N 37°52' W 122°29'0 0.0
2018-Jun-09 23:38N 37°52' W 122°29'0 3.4
2018-Jun-09 23:30N 37°51' W 122°28'1 2.4
2018-Jun-09 23:00N 37°52' W 122°27'1 2.5
2018-Jun-09 22:30N 37°52' W 122°25'1 1.5
2018-Jun-09 22:00N 37°53' W 122°25'2 2.8
2018-Jun-09 21:24N 37°51' W 122°25'2 5.7
2018-Jun-09 21:00N 37°49' W 122°26'2 4.2
2018-Jun-09 20:30N 37°51' W 122°28'1 2.0
2018-Jun-09 19:49N 37°52' W 122°29'0 0.0
2018-Jun-09 18:01N 37°52' W 122°29'0 0.0
2018-Jun-09 17:01N 37°52' W 122°29'0 0.0
2018-Jun-09 16:49N 37°52' W 122°29'0 0.0
2018-Jun-09 16:19N 37°52' W 122°29'0 0.0
2018-Jun-09 15:55N 37°52' W 122°29'0 0.0
2018-Jun-09 15:25N 37°52' W 122°29'0 0.0
2018-Jun-09 14:19N 37°52' W 122°29'0 0.0
2018-Jun-09 13:55N 37°52' W 122°29'0 0.0
2018-Jun-09 13:28N 37°52' W 122°29'0 0.0
2018-Jun-09 12:31N 37°52' W 122°29'0 0.0
2018-Jun-09 12:07N 37°52' W 122°29'0 0.0
2018-Jun-09 11:58N 37°52' W 122°29'0 0.0
2018-Jun-09 09:31N 37°52' W 122°29'0 0.0
2018-Jun-09 09:07N 37°52' W 122°29'0 0.0
2018-Jun-09 08:55N 37°52' W 122°29'0 0.0
2018-Jun-09 08:25N 37°52' W 122°29'0 0.0
2018-Jun-08 22:48N 37°51' W 122°28'1 4.7
2018-Jun-08 22:30N 37°50' W 122°27'1 2.3
2018-Jun-08 21:57N 37°50' W 122°25'2 0.7
2018-Jun-08 18:22N 37°51' W 122°28'1 0.2
2018-Jun-08 15:44N 37°52' W 122°29'0 0.0
2018-Jun-08 15:08N 37°52' W 122°29'0 0.0
2018-Jun-08 14:56N 37°52' W 122°29'0 0.0
2018-Jun-08 14:26N 37°52' W 122°29'0 0.0
2018-Jun-08 13:56N 37°52' W 122°29'0 0.0
2018-Jun-08 12:38N 37°52' W 122°29'0 0.0
2018-Jun-08 12:26N 37°52' W 122°29'0 0.0
2018-Jun-08 11:26N 37°52' W 122°29'0 0.0
2018-Jun-08 10:38N 37°52' W 122°29'0 0.0
2018-Jun-08 10:14N 37°52' W 122°29'0 0.0
2018-Jun-08 09:44N 37°52' W 122°29'0 0.0
2018-Jun-08 09:26N 37°52' W 122°29'0 0.0
2018-Jun-08 08:50N 37°52' W 122°29'0 0.0
2018-Jun-08 06:26N 37°52' W 122°29'0 0.0
2018-Jun-08 03:08N 37°52' W 122°29'0 0.0
2018-Jun-08 02:50N 37°52' W 122°29'0 0.0
2018-Jun-08 01:14N 37°52' W 122°29'0 0.0
2018-Jun-07 15:07N 37°52' W 122°29'0 0.0
2018-Jun-07 12:52N 37°52' W 122°29'0 0.0
2018-Jun-07 12:28N 37°52' W 122°29'0 0.0
2018-Jun-07 11:40N 37°52' W 122°29'0 0.0
2018-Jun-07 10:46N 37°52' W 122°29'0 0.0
2018-Jun-07 09:16N 37°52' W 122°29'0 0.0
2018-Jun-07 08:34N 37°52' W 122°29'0 0.0
2018-Jun-06 14:41N 37°52' W 122°29'0 0.0
2018-Jun-06 13:29N 37°52' W 122°29'0 0.0
2018-Jun-06 07:41N 37°52' W 122°29'0 0.0
2018-Jun-05 23:47N 37°52' W 122°29'0 0.0
2018-Jun-05 09:11N 37°52' W 122°29'0 0.0
2018-Jun-05 08:53N 37°52' W 122°29'0 0.0
2018-Jun-05 08:05N 37°52' W 122°29'1 0.0
2018-Jun-03 20:27N 37°51' W 122°28'1 3.1
2018-Jun-03 20:00N 37°52' W 122°27'2 4.4
2018-Jun-03 19:30N 37°51' W 122°25'3 5.6
2018-Jun-03 19:00N 37°49' W 122°27'1 2.0
2018-Jun-03 18:30N 37°50' W 122°27'2 0.6
2018-Jun-03 14:38N 37°52' W 122°29'0 0.0
2018-Jun-03 14:20N 37°52' W 122°29'0 0.0
2018-Jun-03 13:32N 37°52' W 122°29'0 0.0
2018-Jun-03 13:14N 37°52' W 122°29'0 0.0
2018-Jun-02 20:17N 37°52' W 122°29'0 0.2
2018-Jun-02 19:58N 37°52' W 122°29'2 4.9
2018-Jun-02 19:30N 37°50' W 122°27'1 1.9
2018-Jun-02 19:00N 37°50' W 122°25'3 5.6
2018-Jun-02 18:30N 37°52' W 122°29'0 0.1
2018-Jun-02 16:26N 37°52' W 122°29'  

Dump ship's entire track history